createdAt,value
2019-06-15T00:01:05.931Z,56.54
2019-06-15T00:03:34.496Z,56.63
2019-06-15T00:06:03.040Z,56.12
2019-06-15T00:08:31.606Z,56.02
2019-06-15T00:11:00.176Z,56.88
2019-06-15T00:13:28.732Z,58.20
2019-06-15T00:15:57.542Z,58.10
2019-06-15T00:18:26.065Z,57.43
2019-06-15T00:20:54.581Z,57.03
2019-06-15T00:23:23.393Z,56.42
2019-06-15T00:25:51.966Z,55.99
2019-06-15T00:28:20.499Z,55.52
2019-06-15T00:30:49.025Z,55.43
2019-06-15T00:33:17.538Z,55.31
2019-06-15T00:35:46.109Z,55.19
2019-06-15T00:38:14.673Z,54.15
2019-06-15T00:40:43.307Z,54.24
2019-06-15T00:43:11.850Z,54.09
2019-06-15T00:45:40.357Z,55.02
2019-06-15T00:48:08.903Z,59.57
2019-06-15T00:50:37.518Z,58.59
2019-06-15T00:53:06.077Z,58.54
2019-06-15T00:55:34.572Z,58.39
2019-06-15T00:58:03.256Z,56.62
2019-06-15T01:00:31.820Z,55.77
2019-06-15T01:03:00.474Z,55.16
2019-06-15T01:05:29.001Z,54.91
2019-06-15T01:07:57.884Z,55.66
2019-06-15T01:10:26.684Z,55.83
2019-06-15T01:12:55.204Z,55.68
2019-06-15T01:15:23.745Z,55.55
2019-06-15T01:17:52.250Z,55.04
2019-06-15T01:20:20.787Z,54.80
2019-06-15T01:22:49.286Z,54.95
2019-06-15T01:25:17.799Z,54.76
2019-06-15T01:27:46.318Z,54.61
2019-06-15T01:30:16.436Z,55.44
2019-06-15T01:32:45.231Z,54.42
2019-06-15T01:35:13.751Z,54.48
2019-06-15T01:37:42.274Z,56.04
2019-06-15T01:40:10.878Z,56.10
2019-06-15T01:42:39.391Z,56.27
2019-06-15T01:45:07.987Z,57.91
2019-06-15T01:47:36.584Z,60.25
2019-06-15T01:50:05.162Z,60.13
2019-06-15T01:52:34.036Z,58.69
2019-06-15T01:55:02.563Z,58.08
2019-06-15T01:57:31.134Z,57.27
2019-06-15T01:59:59.694Z,56.20
2019-06-15T02:02:28.256Z,56.14
2019-06-15T02:04:56.867Z,55.34
2019-06-15T02:07:25.356Z,54.74
2019-06-15T02:09:54.274Z,54.58
2019-06-15T02:12:22.827Z,54.82
2019-06-15T02:14:51.380Z,55.82
2019-06-15T02:17:19.880Z,56.22
2019-06-15T02:19:48.464Z,56.72
2019-06-15T02:22:17.152Z,56.48
2019-06-15T02:24:45.725Z,56.66
2019-06-15T02:27:14.296Z,55.79
2019-06-15T02:29:42.792Z,55.70
2019-06-15T02:32:11.363Z,55.49
2019-06-15T02:34:39.852Z,55.45
2019-06-15T02:37:08.425Z,55.55
2019-06-15T02:39:36.943Z,55.33
2019-06-15T02:42:05.620Z,55.59
2019-06-15T02:44:34.118Z,54.90
2019-06-15T02:47:02.659Z,55.16
2019-06-15T02:49:31.157Z,57.08
2019-06-15T02:51:59.641Z,57.63
2019-06-15T02:54:28.136Z,56.80
2019-06-15T02:56:56.706Z,56.73
2019-06-15T02:59:25.254Z,56.69
2019-06-15T03:01:53.757Z,56.93
2019-06-15T03:04:22.252Z,56.87
2019-06-15T03:06:50.843Z,58.45
2019-06-15T03:09:19.428Z,58.53
2019-06-15T03:11:47.923Z,57.79
2019-06-15T03:14:16.464Z,57.03
2019-06-15T03:16:45.018Z,58.12
2019-06-15T03:19:13.459Z,60.01
2019-06-15T03:21:41.998Z,59.38
2019-06-15T03:24:11.881Z,59.08
2019-06-15T03:26:40.428Z,58.42
2019-06-15T03:29:08.995Z,57.91
2019-06-15T03:31:37.500Z,58.41
2019-06-15T03:34:05.977Z,60.75
2019-06-15T03:36:34.561Z,59.47
2019-06-15T03:39:03.441Z,59.16
2019-06-15T03:41:32.008Z,59.55
2019-06-15T03:44:00.576Z,59.55
2019-06-15T03:46:29.120Z,60.06
2019-06-15T03:48:57.619Z,60.11
2019-06-15T03:51:26.198Z,59.71
2019-06-15T03:53:54.630Z,59.65
2019-06-15T03:56:23.107Z,59.49
2019-06-15T03:58:51.597Z,59.02
2019-06-15T04:01:29.851Z,58.75
2019-06-15T04:03:58.398Z,58.80
2019-06-15T04:06:26.888Z,58.63
2019-06-15T04:08:55.388Z,58.32
2019-06-15T04:11:23.889Z,57.93
2019-06-15T04:13:52.385Z,58.14
2019-06-15T04:16:20.870Z,57.17
2019-06-15T04:18:49.355Z,56.36
2019-06-15T04:21:17.858Z,55.62
2019-06-15T04:23:46.351Z,54.33
2019-06-15T04:26:15.134Z,55.03
2019-06-15T04:28:43.688Z,54.90
2019-06-15T04:31:12.218Z,53.55
2019-06-15T04:33:40.717Z,50.77
2019-06-15T04:36:09.500Z,50.14
2019-06-15T04:38:38.054Z,50.16
2019-06-15T04:41:06.595Z,51.55
2019-06-15T04:43:35.395Z,54.42
2019-06-15T04:46:03.891Z,53.47
2019-06-15T04:48:32.435Z,56.55
2019-06-15T04:51:01.213Z,54.24
2019-06-15T04:53:29.711Z,52.18
2019-06-15T04:55:58.208Z,50.94
2019-06-15T04:58:26.715Z,51.27
2019-06-15T05:00:55.290Z,53.01
2019-06-15T05:03:23.864Z,53.35
2019-06-15T05:05:52.395Z,52.74
2019-06-15T05:08:21.202Z,54.78
2019-06-15T05:10:49.699Z,54.40
2019-06-15T05:13:18.229Z,54.34
2019-06-15T05:15:46.730Z,53.69
2019-06-15T05:18:15.260Z,53.84
2019-06-15T05:20:43.762Z,53.61
2019-06-15T05:23:12.302Z,52.52
2019-06-15T05:25:40.801Z,51.01
2019-06-15T05:28:09.411Z,49.92
2019-06-15T05:30:37.961Z,49.82
2019-06-15T05:33:06.460Z,49.92
2019-06-15T05:35:35.318Z,51.94
2019-06-15T05:38:03.848Z,53.42
2019-06-15T05:40:32.621Z,52.46
2019-06-15T05:43:01.180Z,55.28
2019-06-15T05:45:29.919Z,53.61
2019-06-15T05:47:58.759Z,51.18
2019-06-15T05:50:27.248Z,48.63
2019-06-15T05:52:55.741Z,47.78
2019-06-15T05:55:24.249Z,45.05
2019-06-15T05:57:53.020Z,44.33
2019-06-15T06:00:21.558Z,42.34
2019-06-15T06:02:50.119Z,39.55
2019-06-15T06:05:19.842Z,40.09
2019-06-15T06:07:48.323Z,40.20
2019-06-15T06:10:17.069Z,40.51
2019-06-15T06:12:45.564Z,40.34
2019-06-15T06:15:14.746Z,39.24
2019-06-15T06:17:43.825Z,39.16
2019-06-15T06:20:12.832Z,37.58
2019-06-15T06:22:41.319Z,36.85
2019-06-15T06:25:09.848Z,36.95
2019-06-15T06:27:38.347Z,37.36
2019-06-15T06:30:07.756Z,37.79
2019-06-15T06:32:36.293Z,41.65
2019-06-15T06:35:05.008Z,41.57
2019-06-15T06:37:33.521Z,40.64
2019-06-15T06:40:02.128Z,40.39
2019-06-15T06:42:30.681Z,39.65
2019-06-15T06:44:59.501Z,38.62
2019-06-15T06:47:27.981Z,38.64
2019-06-15T06:49:56.532Z,38.85
2019-06-15T06:52:25.022Z,39.52
2019-06-15T06:54:53.661Z,40.03
2019-06-15T06:57:22.374Z,40.87
2019-06-15T06:59:50.863Z,42.35
2019-06-15T07:02:19.716Z,43.23
2019-06-15T07:04:48.212Z,44.49
2019-06-15T07:07:16.696Z,44.39
2019-06-15T07:09:45.579Z,44.94
2019-06-15T07:12:14.173Z,45.03
2019-06-15T07:14:42.928Z,45.49
2019-06-15T07:17:11.449Z,43.33
2019-06-15T07:19:39.944Z,43.34
2019-06-15T07:22:08.527Z,39.94
2019-06-15T07:24:37.040Z,38.08
2019-06-15T07:27:05.527Z,37.09
2019-06-15T07:29:34.083Z,36.24
2019-06-15T07:32:02.659Z,35.86
2019-06-15T07:34:31.140Z,35.68
2019-06-15T07:37:01.690Z,35.51
2019-06-15T07:39:29.984Z,35.87
2019-06-15T07:41:58.489Z,35.41
2019-06-15T07:44:27.095Z,34.77
2019-06-15T07:46:55.575Z,34.66
2019-06-15T07:49:24.344Z,33.94
2019-06-15T07:51:53.109Z,35.44
2019-06-15T07:54:21.602Z,37.78
2019-06-15T07:56:50.090Z,39.95
2019-06-15T07:59:18.585Z,39.80
2019-06-15T08:01:47.093Z,38.61
2019-06-15T08:04:15.585Z,37.70
2019-06-15T08:06:44.317Z,36.53
2019-06-15T08:09:12.812Z,36.02
2019-06-15T08:11:41.309Z,36.67
2019-06-15T08:14:09.800Z,38.00
2019-06-15T08:16:38.290Z,37.30
2019-06-15T08:19:07.044Z,36.40
2019-06-15T08:21:35.823Z,35.01
2019-06-15T08:24:04.970Z,33.70
2019-06-15T08:26:33.607Z,34.54
2019-06-15T08:29:02.122Z,34.03
2019-06-15T08:31:30.706Z,34.16
2019-06-15T08:33:59.560Z,32.91
2019-06-15T08:36:28.176Z,32.54
2019-06-15T08:38:56.919Z,32.67
2019-06-15T08:41:25.443Z,32.33
2019-06-15T08:43:53.935Z,31.85
2019-06-15T08:46:22.411Z,31.75
2019-06-15T08:48:51.141Z,32.48
2019-06-15T08:51:19.636Z,32.04
2019-06-15T08:53:48.186Z,31.67
2019-06-15T08:56:16.685Z,30.73
2019-06-15T08:58:55.027Z,31.14
2019-06-15T09:01:15.744Z,31.04
2019-06-15T09:03:44.285Z,29.11
2019-06-15T09:06:13.436Z,28.21
2019-06-15T09:08:41.934Z,27.63
2019-06-15T09:11:10.442Z,27.90
2019-06-15T09:13:38.985Z,29.84
2019-06-15T09:16:07.475Z,30.80
2019-06-15T09:18:35.988Z,31.24
2019-06-15T09:21:04.477Z,31.35
2019-06-15T09:23:32.982Z,32.20
2019-06-15T09:26:01.488Z,33.55
2019-06-15T09:28:30.052Z,34.50
2019-06-15T09:30:58.970Z,34.19
2019-06-15T09:33:27.471Z,34.64
2019-06-15T09:35:55.972Z,32.06
2019-06-15T09:38:24.479Z,29.05
2019-06-15T09:40:52.975Z,28.69
2019-06-15T09:43:21.807Z,27.00
2019-06-15T09:45:50.304Z,24.56
2019-06-15T09:48:18.815Z,23.82
2019-06-15T09:50:47.296Z,23.16
2019-06-15T09:53:15.801Z,22.22
2019-06-15T09:55:44.538Z,21.70
2019-06-15T09:58:13.327Z,23.36
2019-06-15T10:00:41.836Z,25.35
2019-06-15T10:03:10.404Z,28.43
2019-06-15T10:05:39.270Z,23.80
2019-06-15T10:08:08.147Z,22.76
2019-06-15T10:10:36.913Z,20.86
2019-06-15T10:13:05.453Z,19.18
2019-06-15T10:15:33.961Z,18.65
2019-06-15T10:18:02.503Z,18.83
2019-06-15T10:20:30.979Z,16.12
2019-06-15T10:22:59.507Z,15.27
2019-06-15T10:25:28.061Z,15.00
2019-06-15T10:27:57.021Z,15.18
2019-06-15T10:30:25.825Z,14.23
2019-06-15T10:32:54.323Z,14.35
2019-06-15T10:35:23.069Z,16.84
2019-06-15T10:37:51.595Z,20.14
2019-06-15T10:40:20.347Z,23.11
2019-06-15T10:42:48.891Z,25.26
2019-06-15T10:45:17.415Z,26.50
2019-06-15T10:47:45.938Z,27.21
2019-06-15T10:50:14.464Z,26.48
2019-06-15T10:52:43.045Z,23.74
2019-06-15T10:55:11.550Z,23.18
2019-06-15T10:57:40.360Z,23.22
2019-06-15T11:00:08.910Z,24.85
2019-06-15T11:02:37.657Z,27.06
2019-06-15T11:05:06.756Z,28.61
2019-06-15T11:07:35.509Z,28.81
2019-06-15T11:10:05.017Z,29.10
2019-06-15T11:12:45.414Z,29.67
2019-06-15T11:15:03.848Z,29.37
2019-06-15T11:17:32.994Z,27.93
2019-06-15T11:20:01.515Z,26.80
2019-06-15T11:22:30.046Z,26.18
2019-06-15T11:24:58.811Z,26.58
2019-06-15T11:27:27.325Z,26.62
2019-06-15T11:29:55.886Z,27.16
2019-06-15T11:32:24.399Z,27.83
2019-06-15T11:34:52.927Z,28.37
2019-06-15T11:37:21.441Z,29.05
2019-06-15T11:39:50.043Z,28.42
2019-06-15T11:42:18.729Z,28.31
2019-06-15T11:44:47.313Z,27.98
2019-06-15T11:47:15.799Z,27.72
2019-06-15T11:49:44.337Z,27.46
2019-06-15T11:52:13.112Z,27.44
2019-06-15T11:54:41.648Z,27.74
2019-06-15T11:57:10.151Z,28.65
2019-06-15T11:59:38.996Z,28.50
2019-06-15T12:02:07.494Z,28.32
2019-06-15T12:04:36.121Z,27.79
2019-06-15T12:07:04.618Z,28.14
2019-06-15T12:09:33.161Z,26.64
2019-06-15T12:12:01.683Z,26.95
2019-06-15T12:14:30.213Z,26.72
2019-06-15T12:16:58.712Z,27.00
2019-06-15T12:19:27.224Z,26.43
2019-06-15T12:21:55.818Z,26.64
2019-06-15T12:24:24.291Z,26.45
2019-06-15T12:26:53.131Z,26.56
2019-06-15T12:29:21.637Z,26.73
2019-06-15T12:31:50.237Z,26.68
2019-06-15T12:34:21.129Z,26.71
2019-06-15T12:36:48.981Z,25.89
2019-06-15T12:39:17.517Z,26.07
2019-06-15T12:41:46.061Z,26.12
2019-06-15T12:44:14.955Z,26.06
2019-06-15T12:46:43.795Z,25.93
2019-06-15T12:49:12.290Z,26.12
2019-06-15T12:51:41.025Z,26.47
2019-06-15T12:54:09.583Z,26.91
2019-06-15T12:56:38.129Z,26.80
2019-06-15T12:59:06.635Z,26.89
2019-06-15T13:01:35.201Z,26.55
2019-06-15T13:04:03.710Z,27.18
2019-06-15T13:06:32.227Z,28.67
2019-06-15T13:09:00.729Z,26.81
2019-06-15T13:11:29.246Z,26.87
2019-06-15T13:13:57.813Z,26.79
2019-06-15T13:16:38.589Z,26.15
2019-06-15T13:18:56.816Z,25.32
2019-06-15T13:21:25.326Z,25.47
2019-06-15T13:23:54.076Z,25.75
2019-06-15T13:26:22.610Z,25.56
2019-06-15T13:28:51.367Z,25.39
2019-06-15T13:31:20.190Z,24.92
2019-06-15T13:33:48.706Z,23.76
2019-06-15T13:36:17.235Z,23.27
2019-06-15T13:38:45.752Z,22.93
2019-06-15T13:41:14.280Z,23.19
2019-06-15T13:43:42.877Z,23.33
2019-06-15T13:46:11.627Z,23.16
2019-06-15T13:48:40.130Z,23.25
2019-06-15T13:51:08.729Z,22.92
2019-06-15T13:53:37.300Z,22.89
2019-06-15T13:56:05.804Z,22.95
2019-06-15T13:58:34.309Z,22.36
2019-06-15T14:01:02.874Z,22.84
2019-06-15T14:03:31.741Z,22.74
2019-06-15T14:06:00.263Z,22.28
2019-06-15T14:08:29.114Z,22.20
2019-06-15T14:10:57.970Z,23.69
2019-06-15T14:13:26.499Z,24.29
2019-06-15T14:15:55.384Z,24.55
2019-06-15T14:18:23.901Z,25.76
2019-06-15T14:20:52.409Z,25.59
2019-06-15T14:23:20.936Z,25.34
2019-06-15T14:25:49.448Z,25.81
2019-06-15T14:28:18.310Z,25.58
2019-06-15T14:30:46.871Z,26.00
2019-06-15T14:33:15.373Z,26.40
2019-06-15T14:35:44.230Z,26.75
2019-06-15T14:38:13.061Z,27.53
2019-06-15T14:40:41.661Z,28.01
2019-06-15T14:43:10.169Z,27.11
2019-06-15T14:45:38.722Z,27.23
2019-06-15T14:48:07.223Z,27.53
2019-06-15T14:50:35.799Z,27.40
2019-06-15T14:53:04.326Z,27.05
2019-06-15T14:55:32.826Z,27.25
2019-06-15T14:58:01.659Z,26.70
2019-06-15T15:00:30.507Z,25.73
2019-06-15T15:02:59.016Z,25.70
2019-06-15T15:05:27.699Z,26.12
2019-06-15T15:07:56.336Z,26.92
2019-06-15T15:10:26.711Z,26.91
2019-06-15T15:12:56.648Z,26.64
2019-06-15T15:15:25.417Z,26.09
2019-06-15T15:17:53.968Z,25.74
2019-06-15T15:20:22.498Z,24.35
2019-06-15T15:22:51.252Z,24.53
2019-06-15T15:25:19.745Z,23.84
2019-06-15T15:27:48.249Z,23.25
2019-06-15T15:30:27.120Z,23.65
2019-06-15T15:32:57.183Z,22.07
2019-06-15T15:35:26.892Z,21.69
2019-06-15T15:37:56.719Z,23.02
2019-06-15T15:40:27.475Z,22.16
2019-06-15T15:42:56.255Z,23.33
2019-06-15T15:45:26.258Z,23.32
2019-06-15T15:47:54.897Z,23.08
2019-06-15T15:50:26.062Z,23.29
2019-06-15T15:52:53.654Z,22.45
2019-06-15T15:55:22.339Z,22.80
2019-06-15T15:57:50.947Z,22.10
2019-06-15T16:00:30.549Z,21.19
2019-06-15T16:02:59.080Z,21.91
2019-06-15T16:05:27.952Z,22.26
2019-06-15T16:07:56.974Z,23.29
2019-06-15T16:10:26.645Z,24.46
2019-06-15T16:12:56.795Z,25.28
2019-06-15T16:15:26.488Z,25.47
2019-06-15T16:17:56.325Z,25.52
2019-06-15T16:20:26.334Z,24.83
2019-06-15T16:22:56.527Z,24.67
2019-06-15T16:25:26.633Z,25.70
2019-06-15T16:27:56.647Z,25.78
2019-06-15T16:30:48.386Z,24.67
2019-06-15T16:33:04.002Z,24.02
2019-06-15T16:35:31.391Z,24.24
2019-06-15T16:37:59.915Z,24.02
2019-06-15T16:40:38.185Z,22.84
2019-06-15T16:43:07.092Z,23.08
2019-06-15T16:45:35.851Z,23.02
2019-06-15T16:48:06.352Z,23.32
2019-06-15T16:50:36.677Z,23.48
2019-06-15T16:53:05.190Z,23.51
2019-06-15T16:55:36.548Z,23.47
2019-06-15T16:58:07.112Z,22.38
2019-06-15T17:00:36.329Z,22.80
2019-06-15T17:03:19.951Z,23.19
2019-06-15T17:05:36.217Z,23.08
2019-06-15T17:08:06.962Z,22.11
2019-06-15T17:10:38.421Z,20.72
2019-06-15T17:13:06.991Z,21.05
2019-06-15T17:15:37.118Z,21.26
2019-06-15T17:18:05.855Z,21.37
2019-06-15T17:20:41.068Z,21.97
2019-06-15T17:23:09.594Z,22.06
2019-06-15T17:25:38.202Z,22.14
2019-06-15T17:28:06.723Z,22.96
2019-06-15T17:30:37.069Z,22.49
2019-06-15T17:33:08.217Z,22.98
2019-06-15T17:35:36.302Z,23.19
2019-06-15T17:38:04.760Z,23.66
2019-06-15T17:40:33.482Z,23.64
2019-06-15T17:43:02.229Z,24.11
2019-06-15T17:45:30.758Z,25.03
2019-06-15T17:47:59.216Z,25.20
2019-06-15T17:50:36.315Z,25.35
2019-06-15T17:53:06.944Z,25.71
2019-06-15T17:55:36.686Z,25.84
2019-06-15T17:58:06.551Z,25.85
2019-06-15T18:00:46.958Z,25.79
2019-06-15T18:03:16.969Z,26.06
2019-06-15T18:05:47.998Z,26.44
2019-06-15T18:08:16.754Z,26.35
2019-06-15T18:10:47.738Z,26.62
2019-06-15T18:13:17.064Z,26.66
2019-06-15T18:15:47.583Z,26.57
2019-06-15T18:18:16.980Z,26.49
2019-06-15T18:20:45.785Z,26.57
2019-06-15T18:23:16.968Z,26.87
2019-06-15T18:25:46.582Z,26.72
2019-06-15T18:28:17.142Z,26.98
2019-06-15T18:30:46.613Z,27.26
2019-06-15T18:33:16.341Z,27.35
2019-06-15T18:35:47.281Z,27.41
2019-06-15T18:38:15.269Z,27.50
2019-06-15T18:40:43.785Z,27.96
2019-06-15T18:43:12.324Z,27.82
2019-06-15T18:45:40.817Z,27.96
2019-06-15T18:48:10.022Z,28.31
2019-06-15T18:50:39.113Z,28.53
2019-06-15T18:53:07.667Z,28.57
2019-06-15T18:55:36.508Z,28.89
2019-06-15T18:58:05.476Z,29.02
2019-06-15T19:00:33.967Z,29.11
2019-06-15T19:03:02.506Z,29.10
2019-06-15T19:05:31.011Z,29.04
2019-06-15T19:07:59.803Z,29.17
2019-06-15T19:10:32.648Z,29.56
2019-06-15T19:13:01.207Z,29.43
2019-06-15T19:15:30.103Z,29.49
2019-06-15T19:17:58.952Z,29.58
2019-06-15T19:20:27.754Z,29.84
2019-06-15T19:22:56.785Z,30.02
2019-06-15T19:25:27.039Z,30.29
2019-06-15T19:27:55.594Z,30.47
2019-06-15T19:30:26.341Z,30.68
2019-06-15T19:32:56.526Z,30.77
2019-06-15T19:35:26.330Z,30.83
2019-06-15T19:37:56.725Z,30.80
2019-06-15T19:40:26.765Z,30.89
2019-06-15T19:42:56.986Z,30.95
2019-06-15T19:45:26.770Z,31.09
2019-06-15T19:47:55.682Z,31.07
2019-06-15T19:50:26.674Z,31.28
2019-06-15T19:52:56.521Z,31.67
2019-06-15T19:55:26.820Z,31.77
2019-06-15T19:57:56.847Z,31.98
2019-06-15T20:00:27.062Z,31.95
2019-06-15T20:02:57.290Z,32.34
2019-06-15T20:05:28.628Z,32.63
2019-06-15T20:07:57.014Z,32.73
2019-06-15T20:10:26.650Z,32.83
2019-06-15T20:12:56.244Z,33.14
2019-06-15T20:15:26.271Z,33.46
2019-06-15T20:17:56.967Z,33.74
2019-06-15T20:20:26.652Z,34.15
2019-06-15T20:22:56.087Z,34.22
2019-06-15T20:25:26.693Z,34.39
2019-06-15T20:27:56.409Z,34.43
2019-06-15T20:30:24.924Z,34.66
2019-06-15T20:32:53.437Z,34.88
2019-06-15T20:35:22.279Z,35.28
2019-06-15T20:37:50.793Z,35.29
2019-06-15T20:40:19.310Z,35.20
2019-06-15T20:42:47.816Z,35.37
2019-06-15T20:45:16.621Z,35.33
2019-06-15T20:47:47.775Z,35.37
2019-06-15T20:50:25.478Z,35.51
2019-06-15T20:52:47.153Z,36.02
2019-06-15T20:55:16.299Z,36.60
2019-06-15T20:57:46.078Z,36.74
2019-06-15T21:00:16.747Z,36.69
2019-06-15T21:02:45.249Z,36.81
2019-06-15T21:05:30.245Z,37.15
2019-06-15T21:07:46.569Z,37.27
2019-06-15T21:10:16.015Z,37.33
2019-06-15T21:12:46.909Z,37.25
2019-06-15T21:15:14.925Z,37.19
2019-06-15T21:17:43.420Z,37.26
2019-06-15T21:20:12.900Z,37.42
2019-06-15T21:22:41.392Z,38.01
2019-06-15T21:25:10.003Z,38.55
2019-06-15T21:27:38.842Z,38.42
2019-06-15T21:30:07.480Z,38.21
2019-06-15T21:32:37.033Z,38.52
2019-06-15T21:35:06.615Z,38.36
2019-06-15T21:37:37.071Z,38.08
2019-06-15T21:40:06.063Z,38.31
2019-06-15T21:42:36.179Z,38.71
2019-06-15T21:45:07.571Z,38.43
2019-06-15T21:47:37.119Z,38.18
2019-06-15T21:50:06.328Z,37.99
2019-06-15T21:52:36.416Z,37.85
2019-06-15T21:55:06.982Z,38.38
2019-06-15T21:57:36.505Z,39.09
2019-06-15T22:02:30.035Z,40.93
2019-06-15T22:04:58.553Z,41.83
2019-06-15T22:07:27.072Z,42.14
2019-06-15T22:09:55.567Z,40.82
2019-06-15T22:12:24.062Z,40.29
2019-06-15T22:14:52.555Z,40.43
2019-06-15T22:17:21.038Z,39.82
2019-06-15T22:19:49.541Z,39.99
2019-06-15T22:22:18.019Z,40.04
2019-06-15T22:24:47.010Z,38.95
2019-06-15T22:27:17.107Z,39.08
2019-06-15T22:29:47.256Z,38.92
2019-06-15T22:32:16.577Z,38.91
2019-06-15T22:34:47.055Z,39.23
2019-06-15T22:37:17.312Z,39.25
2019-06-15T22:39:46.631Z,39.39
2019-06-15T22:42:16.817Z,39.47
2019-06-15T22:44:46.423Z,39.77
2019-06-15T22:47:16.850Z,39.64
2019-06-15T22:49:46.827Z,39.70
2019-06-15T22:52:17.105Z,39.51
2019-06-15T22:54:46.524Z,39.42
2019-06-15T22:57:16.707Z,39.94
2019-06-15T22:59:46.161Z,40.33
2019-06-15T23:02:16.773Z,40.17
2019-06-15T23:04:47.100Z,40.53
2019-06-15T23:07:16.172Z,40.76
2019-06-15T23:09:46.814Z,40.96
2019-06-15T23:12:14.963Z,40.90
2019-06-15T23:14:46.446Z,40.83
2019-06-15T23:17:13.985Z,40.85
2019-06-15T23:19:42.458Z,41.32
2019-06-15T23:22:11.281Z,41.21
2019-06-15T23:24:39.777Z,41.26
2019-06-15T23:27:08.264Z,41.80
2019-06-15T23:29:36.916Z,41.51
2019-06-15T23:32:06.296Z,41.55
2019-06-15T23:34:35.322Z,41.40
2019-06-15T23:37:06.766Z,41.11
2019-06-15T23:39:36.180Z,41.21
2019-06-15T23:42:06.123Z,41.83
2019-06-15T23:44:36.161Z,41.98
2019-06-15T23:47:04.775Z,41.80
2019-06-15T23:49:33.297Z,41.64
2019-06-15T23:52:01.807Z,41.44
2019-06-15T23:54:30.316Z,41.20
2019-06-15T23:56:58.802Z,41.09
2019-06-15T23:59:27.301Z,40.86
